Time;durP1;ratioP1;P1;durP2;ratioP2;P2;SDS_P1;SDS_P2;PMS_P1;PMS_P2;Temp;Humidity;BMP_temperature;BMP_pressure;BME280_temperature;BME280_humidity;BME280_pressure;Samples;Min_cycle;Max_cycle;Signal;HPM_P1;HPM_P2
2023/09/25 00:03:03;;;;;;;5.60;3.10;;;;;;;12.73;92.54;101999.46;105844;1267;103698;-84
2023/09/25 00:05:48;;;;;;;3.20;2.80;;;;;;;12.70;92.52;101999.25;105689;1260;100375;-83
2023/09/25 00:08:35;;;;;;;5.20;2.60;;;;;;;12.67;92.85;101999.02;105784;1260;98035;-83
2023/09/25 00:11:21;;;;;;;3.50;2.40;;;;;;;12.64;92.66;101995.98;105825;1264;97962;-83
2023/09/25 00:14:06;;;;;;;5.70;2.60;;;;;;;12.60;92.42;101999.75;105720;1261;98052;-83
2023/09/25 00:16:53;;;;;;;4.20;2.80;;;;;;;12.57;92.51;102008.41;105584;1260;101474;-83
2023/09/25 00:19:38;;;;;;;3.00;2.30;;;;;;;12.53;92.70;102012.61;105706;1265;100045;-83
2023/09/25 00:22:24;;;;;;;4.50;2.40;;;;;;;12.49;92.57;102015.48;105849;1261;97975;-84
2023/09/25 00:25:12;;;;;;;3.00;2.10;;;;;;;12.47;92.57;102017.05;106011;1260;98070;-84
2023/09/25 00:28:02;;;;;;;3.40;2.50;;;;;;;12.44;92.57;102020.74;105881;1267;98551;-83
2023/09/25 00:30:47;;;;;;;3.90;2.60;;;;;;;12.41;92.60;102019.09;105718;1261;102186;-83
2023/09/25 00:33:33;;;;;;;3.30;2.60;;;;;;;12.37;93.05;102017.67;105634;1260;99135;-83
2023/09/25 00:36:18;;;;;;;6.20;3.00;;;;;;;12.36;93.42;102015.83;105820;1264;98493;-83
2023/09/25 00:39:06;;;;;;;3.20;2.30;;;;;;;12.36;93.83;102016.40;105756;1264;98029;-83
2023/09/25 00:41:52;;;;;;;4.40;2.50;;;;;;;12.34;94.46;102014.41;106369;1264;99584;-83
2023/09/25 00:44:37;;;;;;;5.50;3.00;;;;;;;12.32;94.98;102015.52;105725;1263;102605;-82
2023/09/25 00:47:23;;;;;;;2.60;2.30;;;;;;;12.30;95.60;102019.31;105723;1264;100857;-83
2023/09/25 00:50:10;;;;;;;4.50;2.70;;;;;;;12.28;95.97;102017.61;105867;1262;98342;-84
2023/09/25 00:53:00;;;;;;;5.30;2.60;;;;;;;12.25;96.40;102018.24;105837;1268;97948;-83
2023/09/25 00:55:48;;;;;;;6.30;2.60;;;;;;;12.23;96.54;102018.27;105675;1261;97986;-83
2023/09/25 00:58:34;;;;;;;3.20;2.30;;;;;;;12.24;96.90;102016.09;105997;1265;103285;-83
2023/09/25 01:01:21;;;;;;;3.90;3.00;;;;;;;12.26;97.23;102014.61;105908;1260;99203;-84
2023/09/25 01:04:08;;;;;;;7.00;2.80;;;;;;;12.26;97.76;102016.20;106053;1266;98037;-83
2023/09/25 01:06:54;;;;;;;5.70;2.50;;;;;;;12.26;98.08;102018.85;105971;1262;98081;-84
2023/09/25 01:09:39;;;;;;;4.20;2.70;;;;;;;12.27;98.42;102015.89;105733;1267;98465;-83
2023/09/25 01:12:25;;;;;;;4.50;2.60;;;;;;;12.27;98.30;102014.52;105774;1262;102486;-84
2023/09/25 01:15:12;;;;;;;4.90;2.30;;;;;;;12.24;98.47;102015.33;105726;1267;99292;-84
2023/09/25 01:17:58;;;;;;;2.70;2.20;;;;;;;12.22;98.57;102018.20;105841;1262;98451;-84
2023/09/25 01:20:44;;;;;;;4.60;2.80;;;;;;;12.20;98.35;102021.28;105771;1262;98077;-83
2023/09/25 01:23:30;;;;;;;5.40;2.60;;;;;;;12.20;98.42;102020.45;105852;1260;98517;-83
2023/09/25 01:26:16;;;;;;;4.00;2.50;;;;;;;12.17;98.39;102020.54;105944;1264;101500;-84
2023/09/25 01:29:02;;;;;;;3.70;2.70;;;;;;;12.15;98.89;102025.23;105911;1265;100603;-84
2023/09/25 01:31:48;;;;;;;3.30;2.50;;;;;;;12.15;99.38;102025.80;105838;1264;98471;-83
2023/09/25 01:34:34;;;;;;;8.70;3.00;;;;;;;12.16;99.56;102027.34;105786;1262;98056;-84
2023/09/25 01:37:21;;;;;;;3.50;3.10;;;;;;;12.17;99.92;102021.66;105863;1262;97980;-82
2023/09/25 01:40:11;;;;;;;3.50;2.90;;;;;;;12.19;99.98;102013.05;105950;1262;102511;-83
2023/09/25 01:42:57;;;;;;;4.30;3.00;;;;;;;12.20;100.00;102008.43;105879;1265;99176;-83
2023/09/25 01:45:42;;;;;;;3.50;2.70;;;;;;;12.20;100.00;102004.70;105851;1265;98587;-82
2023/09/25 01:48:27;;;;;;;5.60;2.70;;;;;;;12.20;100.00;101998.95;105863;1262;97892;-83
2023/09/25 01:51:13;;;;;;;6.00;3.00;;;;;;;12.21;100.00;102000.94;105856;1260;98538;-84
2023/09/25 01:53:58;;;;;;;5.50;2.50;;;;;;;12.23;100.00;102001.85;105803;1262;101394;-83
2023/09/25 01:56:45;;;;;;;5.50;2.40;;;;;;;12.24;100.00;102006.55;105788;1265;99189;-83
2023/09/25 01:59:31;;;;;;;6.10;3.10;;;;;;;12.24;100.00;102010.61;105907;1262;106416;-84
2023/09/25 02:02:17;;;;;;;5.40;2.80;;;;;;;12.25;100.00;102013.21;105811;1261;98492;-83
2023/09/25 02:05:03;;;;;;;3.50;2.60;;;;;;;12.26;100.00;102015.98;105888;1264;97956;-84
2023/09/25 02:07:50;;;;;;;4.80;2.70;;;;;;;12.27;100.00;102014.89;105919;1264;102666;-83
2023/09/25 02:10:35;;;;;;;4.80;3.40;;;;;;;12.29;100.00;102018.92;105860;1274;99189;-84
2023/09/25 02:13:21;;;;;;;6.20;2.50;;;;;;;12.31;100.00;102016.17;105789;1265;98014;-84
2023/09/25 02:16:06;;;;;;;4.00;2.40;;;;;;;12.30;100.00;102018.64;105540;1275;98093;-83
2023/09/25 02:18:52;;;;;;;6.30;2.90;;;;;;;12.29;100.00;102017.09;105828;1265;97316;-84
2023/09/25 02:21:37;;;;;;;5.50;2.70;;;;;;;12.27;100.00;102016.58;105794;1266;102747;-84
2023/09/25 02:24:23;;;;;;;5.70;2.80;;;;;;;12.27;100.00;102016.03;105842;1264;99104;-83
2023/09/25 02:27:08;;;;;;;4.40;3.00;;;;;;;12.27;100.00;102017.17;105779;1261;97945;-84
2023/09/25 02:29:54;;;;;;;7.00;3.10;;;;;;;12.26;100.00;102018.85;105677;1262;97970;-84
2023/09/25 02:32:42;;;;;;;2.60;2.40;;;;;;;12.26;100.00;102014.39;105824;1265;97910;-84
2023/09/25 02:35:28;;;;;;;3.40;2.50;;;;;;;12.26;100.00;102009.61;106591;1267;102351;-84
2023/09/25 02:38:14;;;;;;;3.10;2.50;;;;;;;12.25;100.00;102007.20;105938;1264;99193;-84
2023/09/25 02:40:59;;;;;;;6.00;2.90;;;;;;;12.24;100.00;102002.42;105929;1261;98128;-84
2023/09/25 02:43:45;;;;;;;5.20;2.60;;;;;;;12.24;100.00;102004.53;105766;1264;97970;-83
2023/09/25 02:46:31;;;;;;;3.90;2.70;;;;;;;12.24;100.00;102005.81;105791;1267;98571;-83
2023/09/25 02:49:16;;;;;;;5.50;2.70;;;;;;;12.23;100.00;102001.78;105805;1267;101448;-83
2023/09/25 02:52:02;;;;;;;6.30;3.10;;;;;;;12.23;100.00;102002.23;105990;1261;100053;-83
2023/09/25 02:54:49;;;;;;;4.20;2.80;;;;;;;12.22;100.00;102001.88;105712;1267;97946;-83
2023/09/25 02:57:35;;;;;;;3.00;2.50;;;;;;;12.21;100.00;102007.20;105699;1266;98061;-83
2023/09/25 03:00:21;;;;;;;4.20;3.10;;;;;;;12.20;100.00;102007.75;105896;1266;98029;-83
2023/09/25 03:03:07;;;;;;;4.70;3.10;;;;;;;12.19;100.00;102008.01;105761;1266;102559;-83
2023/09/25 03:05:52;;;;;;;3.70;3.00;;;;;;;12.17;100.00;102009.83;105895;1265;99270;-84
2023/09/25 03:08:37;;;;;;;6.00;2.90;;;;;;;12.15;100.00;102010.89;105902;1264;98069;-84
2023/09/25 03:11:23;;;;;;;5.90;3.50;;;;;;;12.15;100.00;102006.97;105879;1266;98022;-83
2023/09/25 03:14:08;;;;;;;3.50;2.80;;;;;;;12.15;100.00;102009.14;105890;1267;98018;-84
2023/09/25 03:16:53;;;;;;;6.70;2.60;;;;;;;12.14;100.00;102008.88;105878;1265;101432;-83
2023/09/25 03:19:39;;;;;;;6.20;3.10;;;;;;;12.11;100.00;102012.32;105938;1264;99214;-83
2023/09/25 03:22:25;;;;;;;3.60;2.90;;;;;;;12.09;100.00;102007.34;105845;1268;99026;-83
2023/09/25 03:25:13;;;;;;;4.60;2.80;;;;;;;12.08;100.00;102008.11;105931;1263;98027;-83
2023/09/25 03:27:59;;;;;;;4.90;2.90;;;;;;;12.06;100.00;102009.55;105872;1265;97971;-84
2023/09/25 03:30:45;;;;;;;5.90;3.00;;;;;;;12.05;100.00;102009.02;105932;1260;102770;-84
2023/09/25 03:33:31;;;;;;;4.50;2.90;;;;;;;12.05;100.00;102010.11;105691;1264;99151;-85
2023/09/25 03:36:17;;;;;;;5.10;3.30;;;;;;;12.04;100.00;102010.71;105700;1264;98505;-84
2023/09/25 03:39:04;;;;;;;4.10;2.90;;;;;;;12.02;100.00;102006.77;105564;1260;97981;-84
2023/09/25 03:41:49;;;;;;;9.00;3.30;;;;;;;12.02;100.00;102012.17;105745;1266;98493;-83
2023/09/25 03:44:34;;;;;;;8.40;3.00;;;;;;;12.01;100.00;102016.45;105865;1266;102601;-82
2023/09/25 03:47:20;;;;;;;5.00;2.80;;;;;;;12.00;100.00;102017.01;105682;1270;99282;-83
2023/09/25 03:50:06;;;;;;;4.50;3.10;;;;;;;12.00;100.00;102021.11;105799;1266;99059;-83
2023/09/25 03:52:52;;;;;;;4.50;3.20;;;;;;;12.00;100.00;102024.59;105597;1271;98032;-84
2023/09/25 03:55:40;;;;;;;3.30;2.90;;;;;;;11.98;100.00;102026.23;105678;1260;99411;-83
2023/09/25 03:58:25;;;;;;;4.20;3.00;;;;;;;11.97;100.00;102031.02;105757;1266;101450;-83
2023/09/25 04:01:11;;;;;;;5.80;3.40;;;;;;;11.95;100.00;102036.55;105760;1261;100476;-83
2023/09/25 04:03:56;;;;;;;6.10;2.70;;;;;;;11.94;100.00;102036.29;105762;1266;99105;-83
2023/09/25 04:06:42;;;;;;;3.70;3.00;;;;;;;11.95;100.00;102037.30;105706;1264;98428;-83
2023/09/25 04:09:27;;;;;;;7.10;3.00;;;;;;;11.96;100.00;102041.84;105809;1261;97664;-84
2023/09/25 04:12:14;;;;;;;6.10;3.20;;;;;;;11.96;100.00;102043.92;105766;1264;102330;-84
2023/09/25 04:15:16;;;;;;;6.30;3.30;;;;;;;11.99;100.00;102041.91;105742;1266;99310;-83
2023/09/25 04:18:06;;;;;;;3.80;3.10;;;;;;;11.99;100.00;102040.45;105952;1267;97968;-83
2023/09/25 04:20:51;;;;;;;5.90;3.50;;;;;;;11.99;100.00;102040.37;105575;1263;98485;-84
2023/09/25 04:23:37;;;;;;;6.90;3.20;;;;;;;12.00;100.00;102041.35;105662;1261;97855;-83
2023/09/25 04:26:24;;;;;;;3.50;3.20;;;;;;;12.00;100.00;102038.53;105816;1264;101222;-83
2023/09/25 04:29:17;;;;;;;5.00;3.00;;;;;;;11.98;100.00;102040.54;105887;1264;101309;-84
2023/09/25 04:32:03;;;;;;;4.00;2.50;;;;;;;11.97;100.00;102042.27;105654;1264;99045;-84
2023/09/25 04:34:49;;;;;;;7.00;3.30;;;;;;;11.96;100.00;102039.52;105521;1260;97971;-84
2023/09/25 04:37:36;;;;;;;4.70;2.90;;;;;;;11.94;100.00;102038.77;105512;1267;98418;-83
2023/09/25 04:40:24;;;;;;;4.20;3.00;;;;;;;11.93;100.00;102046.58;105608;1261;101981;-84
2023/09/25 04:43:11;;;;;;;5.40;3.20;;;;;;;11.95;100.00;102049.12;105746;1261;99203;-84
2023/09/25 04:45:58;;;;;;;7.70;3.20;;;;;;;11.98;100.00;102052.38;105842;1266;97967;-85
2023/09/25 04:48:44;;;;;;;5.00;3.60;;;;;;;12.01;100.00;102052.42;105841;1260;97996;-84
2023/09/25 04:51:30;;;;;;;5.40;3.40;;;;;;;12.01;100.00;102054.91;105635;1265;98432;-84
2023/09/25 04:54:15;;;;;;;5.30;3.60;;;;;;;12.02;100.00;102057.69;105527;1264;101435;-84
2023/09/25 04:57:01;;;;;;;7.50;2.90;;;;;;;12.03;100.00;102062.52;105524;1267;100459;-85
2023/09/25 04:59:46;;;;;;;8.20;3.20;;;;;;;12.05;100.00;102063.80;105548;1260;97984;-84
2023/09/25 05:02:32;;;;;;;5.60;3.10;;;;;;;12.06;100.00;102064.88;105832;1263;98176;-84
2023/09/25 05:05:18;;;;;;;4.80;2.70;;;;;;;12.07;100.00;102064.61;105771;1260;98397;-83
2023/09/25 05:08:03;;;;;;;3.50;3.00;;;;;;;12.06;100.00;102066.52;106159;1264;101489;-83
2023/09/25 05:10:49;;;;;;;5.30;3.40;;;;;;;12.06;100.00;102067.29;105665;1263;99405;-85
2023/09/25 05:13:35;;;;;;;5.10;2.90;;;;;;;12.07;100.00;102063.40;105716;1260;99450;-83
2023/09/25 05:16:20;;;;;;;4.90;2.80;;;;;;;12.06;100.00;102064.14;105593;1264;98017;-83
2023/09/25 05:19:06;;;;;;;4.00;2.80;;;;;;;12.05;100.00;102063.40;105508;1263;99658;-84
2023/09/25 05:21:52;;;;;;;6.70;3.10;;;;;;;12.06;100.00;102064.53;105576;1261;102589;-82
2023/09/25 05:24:38;;;;;;;3.80;2.90;;;;;;;12.08;100.00;102067.92;105674;1264;99209;-84
2023/09/25 05:27:24;;;;;;;5.10;3.40;;;;;;;12.11;100.00;102068.30;105646;1282;97942;-84
2023/09/25 05:30:12;;;;;;;6.40;3.70;;;;;;;12.14;100.00;102065.29;105614;1267;97951;-83
2023/09/25 05:32:58;;;;;;;3.80;2.60;;;;;;;12.15;100.00;102063.58;105550;1260;98506;-84
2023/09/25 05:35:44;;;;;;;6.80;3.50;;;;;;;12.17;100.00;102065.84;105459;1260;102290;-83
2023/09/25 05:38:29;;;;;;;3.30;2.90;;;;;;;12.18;100.00;102063.05;105505;1275;99510;-83
2023/09/25 05:41:16;;;;;;;5.00;3.20;;;;;;;12.21;100.00;102062.79;105596;1266;99095;-83
2023/09/25 05:44:01;;;;;;;7.10;3.30;;;;;;;12.23;100.00;102061.30;105579;1267;98038;-85
2023/09/25 05:46:47;;;;;;;5.00;3.00;;;;;;;12.25;100.00;102059.05;105730;1266;98538;-84
2023/09/25 05:49:32;;;;;;;4.90;3.30;;;;;;;12.29;100.00;102052.27;105778;1260;101545;-84
2023/09/25 05:52:18;;;;;;;5.80;3.20;;;;;;;12.32;100.00;102046.55;105635;1260;99638;-84
2023/09/25 05:55:05;;;;;;;8.40;3.10;;;;;;;12.36;100.00;102043.95;105663;1260;98024;-85
2023/09/25 05:57:50;;;;;;;6.40;3.50;;;;;;;12.41;100.00;102041.85;105550;1266;98031;-83
2023/09/25 06:00:37;;;;;;;5.10;3.50;;;;;;;12.44;100.00;102044.73;105641;1266;98414;-83
2023/09/25 06:03:25;;;;;;;4.50;3.30;;;;;;;12.48;100.00;102050.95;105739;1261;101555;-83
2023/09/25 06:06:12;;;;;;;7.80;4.20;;;;;;;12.52;100.00;102055.13;106106;1264;100459;-84
2023/09/25 06:08:58;;;;;;;6.30;3.10;;;;;;;12.57;100.00;102053.19;105827;1260;98112;-83
2023/09/25 06:11:43;;;;;;;5.50;3.20;;;;;;;12.63;100.00;102050.40;105926;1261;97914;-83
2023/09/25 06:14:30;;;;;;;5.40;3.30;;;;;;;12.69;100.00;102047.55;105806;1264;98400;-83
2023/09/25 06:17:16;;;;;;;5.50;3.60;;;;;;;12.76;100.00;102049.48;105763;1264;101349;-83
2023/09/25 06:20:05;;;;;;;6.50;3.50;;;;;;;12.84;100.00;102046.60;105980;1264;100051;-84
2023/09/25 06:22:50;;;;;;;6.40;3.30;;;;;;;12.91;100.00;102046.41;105941;1264;99145;-83
2023/09/25 06:25:37;;;;;;;4.30;3.40;;;;;;;12.97;100.00;102046.55;105676;1265;99180;-83
2023/09/25 06:28:24;;;;;;;6.50;3.70;;;;;;;13.04;100.00;102050.67;105912;1260;98094;-83
2023/09/25 06:31:10;;;;;;;5.80;2.90;;;;;;;13.14;100.00;102055.56;106431;1260;102685;-84
2023/09/25 06:33:55;;;;;;;11.10;3.60;;;;;;;13.22;100.00;102054.27;105976;1260;100618;-84
2023/09/25 06:36:41;;;;;;;4.50;2.60;;;;;;;13.31;100.00;102054.78;106244;1260;99427;-82
2023/09/25 06:39:27;;;;;;;5.20;3.00;;;;;;;13.39;100.00;102050.77;106094;1260;98062;-81
2023/09/25 06:42:12;;;;;;;4.00;2.90;;;;;;;13.48;100.00;102052.05;106192;1260;98036;-80
2023/09/25 06:45:00;;;;;;;5.70;2.90;;;;;;;13.57;100.00;102057.73;106099;1263;101413;-82
2023/09/25 06:47:47;;;;;;;6.30;3.50;;;;;;;13.65;100.00;102063.44;106105;1263;141698;-81
2023/09/25 06:50:33;;;;;;;4.60;2.50;;;;;;;13.74;100.00;102069.05;106109;1261;98398;-82
2023/09/25 06:53:18;;;;;;;5.20;3.20;;;;;;;13.83;100.00;102072.70;106114;1260;96186;-81
2023/09/25 06:56:04;;;;;;;4.50;2.60;;;;;;;13.92;100.00;102074.73;106155;1261;98487;-87
2023/09/25 06:58:51;;;;;;;5.80;2.70;;;;;;;14.01;100.00;102080.17;106027;1260;111467;-84
2023/09/25 07:01:37;;;;;;;5.80;2.40;;;;;;;14.08;100.00;102083.32;106323;1260;100455;-81
2023/09/25 07:04:23;;;;;;;6.60;2.90;;;;;;;14.16;100.00;102085.24;105979;1260;98022;-85
2023/09/25 07:07:09;;;;;;;4.90;2.90;;;;;;;14.25;100.00;102084.55;106007;1264;98052;-87
2023/09/25 07:09:55;;;;;;;7.50;2.60;;;;;;;14.34;100.00;102082.67;106580;1261;98007;-90
2023/09/25 07:13:11;;;;;;;6.40;2.60;;;;;;;14.43;100.00;102082.36;107620;1260;103290;-92
2023/09/25 07:16:10;;;;;;;4.40;2.50;;;;;;;14.51;100.00;102088.02;106301;1265;100352;-86
2023/09/25 07:18:57;;;;;;;7.90;2.70;;;;;;;14.60;100.00;102084.21;105787;1261;99202;-86
2023/09/25 07:21:43;;;;;;;5.90;2.30;;;;;;;14.71;100.00;102085.96;105804;1260;98077;-86
2023/09/25 07:24:29;;;;;;;6.60;2.40;;;;;;;14.80;100.00;102086.84;105729;1260;99586;-86
2023/09/25 07:27:16;;;;;;;3.90;2.30;;;;;;;14.89;100.00;102095.61;106162;1262;102414;-86
2023/09/25 07:30:06;;;;;;;4.00;2.40;;;;;;;14.98;100.00;102099.31;105849;1260;100144;-84
2023/09/25 07:32:52;;;;;;;6.00;2.70;;;;;;;15.07;100.00;102096.80;105785;1260;99229;-85
2023/09/25 07:35:38;;;;;;;5.70;2.20;;;;;;;15.15;100.00;102096.02;105868;1260;97960;-86
2023/09/25 07:38:24;;;;;;;3.80;2.10;;;;;;;15.22;100.00;102096.09;106391;1260;98424;-86
2023/09/25 07:41:12;;;;;;;5.10;2.50;;;;;;;15.30;100.00;102089.88;106356;1260;110389;-82
2023/09/25 07:43:59;;;;;;;6.90;2.10;;;;;;;15.37;100.00;102084.86;105830;1263;100408;-85
2023/09/25 07:46:47;;;;;;;4.40;2.10;;;;;;;15.45;100.00;102086.33;105864;1264;98996;-87
2023/09/25 07:49:40;;;;;;;4.70;2.00;;;;;;;15.52;100.00;102081.85;105950;1261;98089;-88
2023/09/25 07:52:25;;;;;;;5.30;1.90;;;;;;;15.61;100.00;102084.54;106216;1260;98495;-86
2023/09/25 07:55:11;;;;;;;4.60;1.90;;;;;;;15.69;100.00;102079.77;106129;1260;102593;-88
2023/09/25 07:57:57;;;;;;;5.50;1.80;;;;;;;15.76;100.00;102078.71;106085;1260;100187;-87
2023/09/25 08:00:44;;;;;;;4.40;1.90;;;;;;;15.84;100.00;102076.46;106816;1260;99037;-87
2023/09/25 08:03:31;;;;;;;6.50;1.80;;;;;;;15.91;100.00;102074.69;106127;1261;98042;-87
2023/09/25 08:06:19;;;;;;;3.50;1.80;;;;;;;15.98;100.00;102073.64;105987;1260;98065;-84
2023/09/25 08:09:04;;;;;;;3.00;1.70;;;;;;;16.07;100.00;102075.30;105984;1261;101395;-87
2023/09/25 08:11:50;;;;;;;7.80;1.60;;;;;;;16.15;100.00;102072.80;106047;1264;100017;-86
2023/09/25 08:14:36;;;;;;;3.40;2.00;;;;;;;16.25;100.00;102074.55;106160;1260;97956;-89
2023/09/25 08:17:22;;;;;;;2.60;1.80;;;;;;;16.36;100.00;102071.56;106310;1260;97962;-90
2023/09/25 08:20:14;;;;;;;4.50;1.80;;;;;;;16.45;100.00;102073.13;106670;1260;98051;-91
2023/09/25 08:23:17;;;;;;;6.90;1.50;;;;;;;16.54;100.00;102070.36;106557;1260;101368;-92
2023/09/25 08:26:29;;;;;;;3.50;1.70;;;;;;;16.67;100.00;102070.70;106734;1263;100215;-90
2023/09/25 08:29:16;;;;;;;6.30;1.80;;;;;;;16.78;100.00;102064.81;106547;1264;99967;-87
2023/09/25 08:32:02;;;;;;;7.00;1.80;;;;;;;16.87;99.94;102059.87;106607;1266;97697;-88
2023/09/25 08:34:48;;;;;;;5.00;1.70;;;;;;;16.94;99.72;102056.41;106219;1261;96388;-86
2023/09/25 08:37:45;;;;;;;6.60;1.80;;;;;;;17.03;99.14;102051.00;105888;1261;102685;-87
2023/09/25 08:40:57;;;;;;;6.60;1.70;;;;;;;17.12;98.98;102050.20;106400;1260;101410;-90
2023/09/25 08:43:52;;;;;;;4.10;1.70;;;;;;;17.22;98.65;102052.04;106386;1262;99414;-90
2023/09/25 08:46:38;;;;;;;2.60;1.40;;;;;;;17.32;98.51;102054.64;106247;1266;97933;-91
2023/09/25 08:49:24;;;;;;;4.40;1.40;;;;;;;17.41;98.32;102053.42;106489;1261;97895;-89
2023/09/25 08:52:10;;;;;;;2.80;1.30;;;;;;;17.51;98.18;102055.20;106684;1264;101659;-89
2023/09/25 08:54:56;;;;;;;3.40;1.30;;;;;;;17.62;98.10;102057.04;106361;1259;100900;-89
2023/09/25 08:57:43;;;;;;;4.90;2.00;;;;;;;17.71;97.44;102059.30;106508;1266;98941;-91
2023/09/25 09:00:29;;;;;;;5.70;1.40;;;;;;;17.79;96.57;102059.36;106457;1260;97952;-88
2023/09/25 09:03:16;;;;;;;3.40;1.90;;;;;;;17.86;95.82;102056.31;106692;1263;98513;-91
2023/09/25 09:06:25;;;;;;;3.80;1.90;;;;;;;17.92;95.58;102056.06;106658;1260;102905;-90
2023/09/25 09:09:13;;;;;;;4.80;1.40;;;;;;;18.00;95.50;102048.27;106476;1260;100530;-89
2023/09/25 09:11:59;;;;;;;5.10;1.80;;;;;;;18.10;95.66;102047.90;106390;1261;98798;-89
2023/09/25 09:14:44;;;;;;;7.30;1.90;;;;;;;18.19;95.72;102043.40;106546;1267;97984;-91
2023/09/25 09:17:46;;;;;;;2.40;1.50;;;;;;;18.29;94.66;102044.91;106602;1261;97944;-93
2023/09/25 09:23:57;;;;;;;6.20;2.80;;;;;;;18.46;93.68;102034.06;106312;1261;99210;-86
2023/09/25 09:26:43;;;;;;;2.80;2.00;;;;;;;18.58;93.26;102035.77;106077;1260;98497;-89
2023/09/25 09:29:35;;;;;;;3.60;2.40;;;;;;;18.67;92.22;102032.54;106488;1260;97951;-89
2023/09/25 09:32:20;;;;;;;2.80;1.80;;;;;;;18.74;91.00;102031.52;106843;1261;98110;-87
2023/09/25 09:35:07;;;;;;;3.90;1.80;;;;;;;18.77;90.22;102028.56;106653;1260;102430;-90
2023/09/25 09:37:58;;;;;;;2.40;2.00;;;;;;;18.76;89.34;102031.39;106484;1260;98893;-90
2023/09/25 09:40:44;;;;;;;2.30;1.60;;;;;;;18.74;89.04;102030.77;106111;1266;97906;-82
2023/09/25 09:43:29;;;;;;;6.60;1.70;;;;;;;18.73;88.77;102031.27;106112;1264;98089;-81
2023/09/25 09:46:16;;;;;;;4.40;1.90;;;;;;;18.73;88.35;102029.13;106217;1261;97882;-83
2023/09/25 09:49:02;;;;;;;3.60;1.90;;;;;;;18.73;88.27;102026.13;107623;1260;102146;-82
2023/09/25 09:51:50;;;;;;;5.20;1.80;;;;;;;18.75;88.38;102024.88;106632;1260;99380;-83
2023/09/25 09:54:40;;;;;;;4.40;2.10;;;;;;;18.77;87.99;102025.42;106077;1260;98346;-83
2023/09/25 09:57:26;;;;;;;2.10;1.40;;;;;;;18.80;87.83;102023.50;106131;1260;98465;-82
2023/09/25 10:00:12;;;;;;;5.00;1.40;;;;;;;18.83;88.07;102021.27;106077;1261;98076;-83
2023/09/25 10:02:58;;;;;;;4.10;1.30;;;;;;;18.88;88.25;102019.64;106194;1266;101407;-81
2023/09/25 10:05:45;;;;;;;5.20;1.70;;;;;;;18.94;87.76;102012.67;105897;1260;99250;-82
2023/09/25 10:08:31;;;;;;;3.60;1.50;;;;;;;19.01;87.65;102017.35;106076;1263;99016;-81
2023/09/25 10:11:23;;;;;;;5.50;1.60;;;;;;;19.08;87.80;102017.23;105997;1261;98076;-81
2023/09/25 10:14:08;;;;;;;3.30;1.30;;;;;;;19.14;87.58;102014.74;106221;1265;97974;-82
2023/09/25 10:16:59;;;;;;;3.60;1.60;;;;;;;19.19;87.06;102014.33;106046;1260;101429;-82
2023/09/25 10:19:49;;;;;;;2.50;1.50;;;;;;;19.20;86.61;102013.06;106136;1260;100412;-81
2023/09/25 10:22:37;;;;;;;6.30;1.60;;;;;;;19.23;86.57;102015.29;106178;1261;97933;-82
2023/09/25 10:25:24;;;;;;;2.10;1.40;;;;;;;19.28;86.54;102013.78;105896;1260;99275;-83
2023/09/25 10:28:39;;;;;;;2.60;1.50;;;;;;;19.32;85.99;102010.59;105877;1260;98442;-83
2023/09/25 10:31:29;;;;;;;5.20;1.90;;;;;;;19.35;85.53;102011.37;106087;1260;101416;-82
2023/09/25 10:34:16;;;;;;;2.10;1.50;;;;;;;19.39;84.69;102010.70;105979;1260;99850;-82
2023/09/25 10:37:04;;;;;;;3.40;1.80;;;;;;;19.43;84.95;102007.23;105866;1260;98568;-82
2023/09/25 10:39:56;;;;;;;6.10;1.50;;;;;;;19.54;85.68;102007.27;106001;1260;97882;-83
2023/09/25 10:42:42;;;;;;;3.80;1.70;;;;;;;19.64;85.11;102005.45;105941;1260;97852;-83
2023/09/25 10:45:27;;;;;;;5.50;1.50;;;;;;;19.70;84.31;102005.64;106075;1260;101423;-83
2023/09/25 10:48:13;;;;;;;6.30;2.00;;;;;;;19.71;83.67;102003.79;106017;1264;100214;-82
2023/09/25 10:50:59;;;;;;;3.30;1.50;;;;;;;19.70;83.32;102002.88;106177;1264;98725;-82
2023/09/25 10:53:44;;;;;;;5.30;1.80;;;;;;;19.66;82.88;101999.26;105932;1264;97975;-83
2023/09/25 10:56:32;;;;;;;4.90;1.40;;;;;;;19.63;82.75;101999.50;106081;1264;98153;-82
2023/09/25 10:59:18;;;;;;;4.10;1.00;;;;;;;19.61;82.56;101994.91;106167;1263;102215;-82
2023/09/25 11:02:03;;;;;;;4.30;1.20;;;;;;;19.63;83.48;101990.77;105860;1260;100072;-81
2023/09/25 11:04:49;;;;;;;5.70;1.30;;;;;;;19.68;83.84;101990.30;106096;1266;98409;-83
2023/09/25 11:07:38;;;;;;;4.80;1.40;;;;;;;19.71;83.14;101984.00;107046;1260;99199;-83
2023/09/25 11:10:37;;;;;;;3.00;1.20;;;;;;;19.73;82.68;101978.02;106007;1264;98999;-81
2023/09/25 11:13:23;;;;;;;5.40;1.40;;;;;;;19.76;82.49;101976.26;106137;1260;102209;-82
2023/09/25 11:16:08;;;;;;;1.70;1.40;;;;;;;19.79;82.32;101973.32;105878;1264;100305;-82
2023/09/25 11:19:11;;;;;;;3.50;1.20;;;;;;;19.84;82.27;101968.58;105828;1260;97984;-83
2023/09/25 11:22:00;;;;;;;1.70;1.00;;;;;;;19.92;81.54;101964.67;105793;1260;97977;-83
2023/09/25 11:24:55;;;;;;;2.50;1.20;;;;;;;20.01;80.82;101958.77;105838;1263;98065;-83
2023/09/25 11:27:54;;;;;;;6.50;1.70;;;;;;;20.10;80.07;101957.73;105788;1261;101371;-83
2023/09/25 11:30:41;;;;;;;3.40;1.40;;;;;;;20.17;79.23;101951.42;105874;1261;99907;-82
2023/09/25 11:33:28;;;;;;;2.70;1.30;;;;;;;20.22;78.84;101954.39;105761;1261;98796;-83
2023/09/25 11:36:14;;;;;;;10.90;1.60;;;;;;;20.26;79.73;101955.25;105775;1261;97934;-82
2023/09/25 11:39:00;;;;;;;4.20;1.30;;;;;;;20.34;79.36;101955.41;105908;1261;98469;-82
2023/09/25 11:41:46;;;;;;;5.20;1.10;;;;;;;20.37;78.79;101960.84;105800;1260;102609;-81
2023/09/25 11:44:32;;;;;;;4.60;1.20;;;;;;;20.43;78.52;101960.27;105821;1260;100352;-83
2023/09/25 11:47:19;;;;;;;6.60;2.00;;;;;;;20.47;79.15;101955.39;105818;1260;98336;-82
2023/09/25 11:50:05;;;;;;;4.10;1.30;;;;;;;20.55;79.24;101949.88;106094;1263;97897;-89
2023/09/25 11:52:51;;;;;;;2.80;1.00;;;;;;;20.61;78.58;101940.21;106245;1261;97893;-86
2023/09/25 11:55:38;;;;;;;3.50;1.50;;;;;;;20.66;77.40;101938.87;106355;1260;101376;-87
2023/09/25 11:58:28;;;;;;;2.90;1.10;;;;;;;20.77;77.49;101933.67;106152;1266;99089;-86
2023/09/25 12:01:25;;;;;;;3.20;1.30;;;;;;;20.94;77.54;101928.04;106452;1267;99293;-89
2023/09/25 12:04:14;;;;;;;3.10;1.30;;;;;;;21.12;77.43;101924.22;106278;1261;98050;-90
2023/09/25 12:07:00;;;;;;;4.00;1.20;;;;;;;21.28;76.77;101923.19;106293;1264;98006;-89
2023/09/25 12:09:45;;;;;;;4.70;1.40;;;;;;;21.40;75.43;101919.04;106590;1264;102535;-89
2023/09/25 12:12:41;;;;;;;3.80;1.20;;;;;;;21.51;74.58;101918.33;106823;1260;99236;-90
2023/09/25 12:15:27;;;;;;;3.30;1.10;;;;;;;21.60;73.94;101917.83;106527;1260;97970;-90
2023/09/25 12:18:13;;;;;;;1.90;1.30;;;;;;;21.64;72.89;101911.02;106054;1267;97909;-83
2023/09/25 12:20:59;;;;;;;2.20;1.50;;;;;;;21.67;72.72;101910.52;106283;1261;97942;-84
2023/09/25 12:23:45;;;;;;;1.90;1.20;;;;;;;21.69;72.33;101913.46;106016;1260;101431;-81
2023/09/25 12:26:30;;;;;;;4.80;1.10;;;;;;;21.69;71.85;101909.61;106171;1264;100544;-84
2023/09/25 12:29:15;;;;;;;3.80;1.40;;;;;;;21.70;72.08;101909.02;106273;1260;99186;-84
2023/09/25 12:32:01;;;;;;;3.10;0.80;;;;;;;21.71;71.42;101903.28;106254;1260;98022;-91
2023/09/25 12:34:47;;;;;;;2.50;1.50;;;;;;;21.71;71.41;101900.56;105751;1260;97978;-85
2023/09/25 12:37:34;;;;;;;4.60;1.30;;;;;;;21.74;71.80;101896.38;105914;1261;110619;-85
2023/09/25 12:40:19;;;;;;;4.50;1.50;;;;;;;21.77;71.97;101895.83;105682;1260;99669;-86
2023/09/25 12:43:05;;;;;;;2.80;1.20;;;;;;;21.83;71.65;101896.61;105651;1264;97987;-85
2023/09/25 12:45:51;;;;;;;3.30;1.30;;;;;;;21.86;70.65;101892.39;105812;1266;98053;-83